createdAt,value
2023-06-23T00:02:09.837Z,102114.16
2023-06-23T00:04:36.396Z,102122.25
2023-06-23T00:07:03.022Z,102124.91
2023-06-23T00:09:29.543Z,102125.84
2023-06-23T00:11:56.108Z,102116.31
2023-06-23T00:14:22.687Z,102126.03
2023-06-23T00:16:49.253Z,102119.97
2023-06-23T00:19:15.804Z,102118.28
2023-06-23T00:21:42.396Z,102121.94
2023-06-23T00:24:08.937Z,102131.66
2023-06-23T00:26:35.565Z,102135.22
2023-06-23T00:29:02.745Z,102133.56
2023-06-23T00:31:29.345Z,102129.28
2023-06-23T00:33:55.917Z,102131.09
2023-06-23T00:36:22.472Z,102122.44
2023-06-23T00:38:49.031Z,102128.66
2023-06-23T00:41:17.475Z,102127.84
2023-06-23T00:43:45.760Z,102133.19
2023-06-23T00:46:21.391Z,102136.78
2023-06-23T00:48:49.327Z,102136.88
2023-06-23T00:51:16.566Z,102145.63
2023-06-23T00:53:46.232Z,102138.69
2023-06-23T00:56:12.841Z,102136.19
2023-06-23T00:58:39.560Z,102147.56
2023-06-23T01:01:06.134Z,102152.00
2023-06-23T01:03:33.166Z,102150.31
2023-06-23T01:06:19.260Z,102148.66
2023-06-23T01:09:03.546Z,102157.44
2023-06-23T01:11:36.724Z,102149.69
2023-06-23T01:14:10.023Z,102154.06
2023-06-23T01:16:45.875Z,102137.53
2023-06-23T01:19:35.698Z,102157.69
2023-06-23T01:22:22.623Z,102142.94
2023-06-23T01:25:04.338Z,102157.75
2023-06-23T01:27:46.814Z,102141.31
2023-06-23T01:30:16.219Z,102157.88
2023-06-23T01:32:49.423Z,102150.94
2023-06-23T01:35:26.546Z,102148.38
2023-06-23T01:38:04.022Z,102145.88
2023-06-23T01:40:30.850Z,102143.25
2023-06-23T01:43:01.032Z,102128.56
2023-06-23T01:45:27.767Z,102155.59
2023-06-23T01:47:58.591Z,102135.66
2023-06-23T01:50:25.836Z,102127.00
2023-06-23T01:52:53.743Z,102143.56
2023-06-23T01:55:21.108Z,102140.94
2023-06-23T01:57:49.759Z,102143.66
2023-06-23T02:00:18.655Z,102154.25
2023-06-23T02:02:51.144Z,102155.16
2023-06-23T02:05:22.060Z,102136.00
2023-06-23T02:07:51.110Z,102132.56
2023-06-23T02:10:20.560Z,102146.50
2023-06-23T02:12:49.590Z,102132.81
2023-06-23T02:15:18.846Z,102145.81
2023-06-23T02:17:50.180Z,102147.53
2023-06-23T02:20:17.826Z,102158.91
2023-06-23T02:22:49.817Z,102154.56
2023-06-23T02:25:17.947Z,102173.00
2023-06-23T02:27:46.155Z,102174.78
2023-06-23T02:30:13.483Z,102174.88
2023-06-23T02:32:40.064Z,102179.31
2023-06-23T02:35:08.752Z,102169.81
2023-06-23T02:37:40.321Z,102167.22
2023-06-23T02:40:11.533Z,102163.84
2023-06-23T02:42:41.361Z,102176.91
2023-06-23T02:45:16.788Z,102182.19
2023-06-23T02:47:46.204Z,102180.50
2023-06-23T02:50:14.422Z,102175.25
2023-06-23T02:52:46.456Z,102173.56
2023-06-23T02:55:17.964Z,102168.41
2023-06-23T02:57:46.648Z,102188.47
2023-06-23T03:00:15.614Z,102179.81
2023-06-23T03:02:44.317Z,102188.59
2023-06-23T03:05:12.080Z,102199.94
2023-06-23T03:07:38.973Z,102192.09
2023-06-23T03:10:09.038Z,102185.16
2023-06-23T03:12:35.894Z,102184.31
2023-06-23T03:15:04.700Z,102194.84
2023-06-23T03:17:35.217Z,102190.53
2023-06-23T03:20:19.816Z,102192.28
2023-06-23T03:22:52.365Z,102174.03
2023-06-23T03:25:23.815Z,102169.63
2023-06-23T03:27:54.805Z,102181.81
2023-06-23T03:30:31.971Z,102181.84
2023-06-23T03:33:02.449Z,102159.25
2023-06-23T03:35:38.690Z,102172.31
2023-06-23T03:38:09.736Z,102182.75
2023-06-23T03:40:40.887Z,102181.94
2023-06-23T03:43:11.613Z,102170.69
2023-06-23T03:45:40.608Z,102181.16
2023-06-23T03:48:10.766Z,102181.22
2023-06-23T03:50:40.409Z,102192.56
2023-06-23T03:53:08.202Z,102191.72
2023-06-23T03:55:37.063Z,102197.81
2023-06-23T03:58:08.112Z,102206.53
2023-06-23T04:00:37.254Z,102211.78
2023-06-23T04:03:07.735Z,102208.34
2023-06-23T04:05:36.644Z,102216.16
2023-06-23T04:08:05.207Z,102203.13
2023-06-23T04:10:33.949Z,102224.03
2023-06-23T04:13:02.552Z,102212.72
2023-06-23T04:15:30.897Z,102220.53
2023-06-23T04:17:59.398Z,102226.59
2023-06-23T04:20:27.395Z,102231.03
2023-06-23T04:22:56.244Z,102238.84
2023-06-23T04:25:24.339Z,102246.69
2023-06-23T04:27:56.507Z,102241.50
2023-06-23T04:30:25.289Z,102238.03
2023-06-23T04:32:52.052Z,102242.34
2023-06-23T04:35:18.925Z,102243.19
2023-06-23T04:37:54.761Z,102243.19
2023-06-23T04:40:37.624Z,102242.28
2023-06-23T04:43:10.450Z,102234.47
2023-06-23T04:45:42.449Z,102250.13
2023-06-23T04:48:11.606Z,102250.16
2023-06-23T04:50:41.253Z,102259.78
2023-06-23T04:53:14.284Z,102254.59
2023-06-23T04:55:45.047Z,102258.91
2023-06-23T04:58:13.721Z,102268.44
2023-06-23T05:00:42.571Z,102266.72
2023-06-23T05:03:10.565Z,102262.38
2023-06-23T05:05:39.006Z,102268.38
2023-06-23T05:08:06.997Z,102269.19
2023-06-23T05:10:34.912Z,102272.63
2023-06-23T05:13:04.734Z,102270.81
2023-06-23T05:15:31.431Z,102257.66
2023-06-23T05:18:02.701Z,102265.44
2023-06-23T05:20:30.344Z,102271.44
2023-06-23T05:22:59.781Z,102264.41
2023-06-23T05:25:28.147Z,102259.03
2023-06-23T05:27:56.918Z,102260.75
2023-06-23T05:30:25.190Z,102252.78
2023-06-23T05:32:53.834Z,102241.31
2023-06-23T05:35:22.704Z,102261.22
2023-06-23T05:37:51.202Z,102257.63
2023-06-23T05:40:17.970Z,102260.97
2023-06-23T05:42:45.651Z,102266.94
2023-06-23T05:45:13.277Z,102272.09
2023-06-23T05:47:52.999Z,102270.34
2023-06-23T05:50:24.300Z,102276.28
2023-06-23T05:52:59.034Z,102271.75
2023-06-23T05:55:28.464Z,102257.72
2023-06-23T05:57:58.829Z,102276.03
2023-06-23T06:00:28.009Z,102285.50
2023-06-23T06:02:56.524Z,102288.91
2023-06-23T06:05:24.971Z,102281.88
2023-06-23T06:07:52.567Z,102289.56
2023-06-23T06:10:20.901Z,102292.97
2023-06-23T06:12:51.179Z,102278.03
2023-06-23T06:15:18.672Z,102274.31
2023-06-23T06:17:46.795Z,102274.22
2023-06-23T06:20:16.148Z,102267.19
2023-06-23T06:22:46.138Z,102262.75
2023-06-23T06:25:14.563Z,102266.13
2023-06-23T06:27:44.933Z,102266.88
2023-06-23T06:30:12.781Z,102285.97
2023-06-23T06:32:42.486Z,102278.97
2023-06-23T06:35:11.707Z,102284.88
2023-06-23T06:37:44.429Z,102280.38
2023-06-23T06:40:13.335Z,102283.78
2023-06-23T06:42:40.261Z,102288.88
2023-06-23T06:45:08.741Z,102287.00
2023-06-23T06:47:40.725Z,102293.03
2023-06-23T06:50:09.830Z,102298.19
2023-06-23T06:52:45.468Z,102283.25
2023-06-23T06:55:20.858Z,102278.75
2023-06-23T06:57:48.843Z,102291.69
2023-06-23T07:00:18.286Z,102289.88
2023-06-23T07:02:45.523Z,102301.91
2023-06-23T07:05:12.485Z,102303.47
2023-06-23T07:07:39.118Z,102308.63
2023-06-23T07:10:06.402Z,102312.88
2023-06-23T07:12:33.110Z,102314.47
2023-06-23T07:14:59.697Z,102311.69
2023-06-23T07:17:26.598Z,102311.59
2023-06-23T07:19:53.255Z,102311.53
2023-06-23T07:22:20.183Z,102311.53
2023-06-23T07:24:46.741Z,102315.84
2023-06-23T07:27:13.359Z,102324.63
2023-06-23T07:29:39.852Z,102323.75
2023-06-23T07:32:08.170Z,102318.41
2023-06-23T07:34:34.921Z,102334.09
2023-06-23T07:37:01.512Z,102329.56
2023-06-23T07:39:28.051Z,102332.94
2023-06-23T07:41:54.751Z,102334.56
2023-06-23T07:44:21.308Z,102322.97
2023-06-23T07:46:48.056Z,102328.09
2023-06-23T07:49:14.608Z,102322.59
2023-06-23T07:51:41.140Z,102324.19
2023-06-23T07:54:07.878Z,102321.38
2023-06-23T07:56:34.696Z,102322.03
2023-06-23T07:59:01.267Z,102325.28
2023-06-23T08:01:27.883Z,102324.06
2023-06-23T08:03:54.682Z,102324.66
2023-06-23T08:06:21.380Z,102330.59
2023-06-23T08:08:47.999Z,102325.06
2023-06-23T08:11:17.442Z,102320.41
2023-06-23T08:13:44.289Z,102318.41
2023-06-23T08:16:10.992Z,102321.63
2023-06-23T08:18:37.636Z,102322.03
2023-06-23T08:21:04.376Z,102326.22
2023-06-23T08:23:35.434Z,102319.91
2023-06-23T08:26:03.676Z,102317.19
2023-06-23T08:28:30.216Z,102315.06
2023-06-23T08:30:57.914Z,102304.03
2023-06-23T08:35:51.191Z,102313.66
2023-06-23T08:38:17.744Z,102315.09
2023-06-23T08:40:44.446Z,102316.38
2023-06-23T08:43:11.214Z,102307.03
2023-06-23T08:45:41.045Z,102297.81
2023-06-23T08:48:08.778Z,102300.69
2023-06-23T08:50:37.023Z,102295.25
2023-06-23T08:53:07.023Z,102306.28
2023-06-23T08:55:34.216Z,102306.91
2023-06-23T08:58:03.964Z,102313.78
2023-06-23T09:00:30.803Z,102312.72
2023-06-23T09:02:57.931Z,102307.13
2023-06-23T09:05:24.795Z,102312.91
2023-06-23T09:07:51.598Z,102317.00
2023-06-23T09:10:18.473Z,102312.56
2023-06-23T09:13:04.902Z,102316.38
2023-06-23T09:15:35.865Z,102329.53
2023-06-23T09:18:09.504Z,102317.34
2023-06-23T09:20:38.460Z,102314.41
2023-06-23T09:23:06.803Z,102318.50
2023-06-23T09:25:39.398Z,102325.28
2023-06-23T09:28:06.373Z,102319.09
2023-06-23T09:30:36.801Z,102313.78
2023-06-23T09:33:06.808Z,102321.66
2023-06-23T09:35:34.177Z,102323.38
2023-06-23T09:38:02.865Z,102314.38
2023-06-23T09:40:29.732Z,102311.59
2023-06-23T09:43:00.460Z,102313.97
2023-06-23T09:45:27.212Z,102316.53
2023-06-23T09:47:53.792Z,102321.59
2023-06-23T09:50:23.488Z,102308.25
2023-06-23T09:53:04.646Z,102321.09
2023-06-23T09:55:32.117Z,102331.47
2023-06-23T09:57:59.276Z,102336.41
2023-06-23T10:00:33.192Z,102332.41
2023-06-23T10:03:00.252Z,102338.00
2023-06-23T10:05:34.161Z,102326.31
2023-06-23T10:08:12.460Z,102338.81
2023-06-23T10:10:43.877Z,102335.88
2023-06-23T10:13:10.883Z,102352.47
2023-06-23T10:15:38.347Z,102344.28
2023-06-23T10:18:05.140Z,102343.28
2023-06-23T10:20:31.999Z,102340.56
2023-06-23T10:22:59.244Z,102342.28
2023-06-23T10:25:27.238Z,102352.78
2023-06-23T10:27:56.818Z,102345.06
2023-06-23T10:30:24.295Z,102351.97
2023-06-23T10:32:56.045Z,102346.00
2023-06-23T10:35:23.824Z,102351.59
2023-06-23T10:38:03.284Z,102357.94
2023-06-23T10:40:34.893Z,102343.78
2023-06-23T10:43:02.220Z,102351.19
2023-06-23T10:45:29.565Z,102340.34
2023-06-23T10:47:56.620Z,102348.06
2023-06-23T10:50:23.988Z,102350.28
2023-06-23T10:52:50.543Z,102351.31
2023-06-23T10:56:07.621Z,102359.63
2023-06-23T10:58:49.624Z,102348.50
2023-06-23T11:01:16.261Z,102347.63
2023-06-23T11:03:42.877Z,102345.84
2023-06-23T11:06:11.043Z,102344.38
2023-06-23T11:08:40.082Z,102349.69
2023-06-23T11:11:08.787Z,102345.31
2023-06-23T11:13:42.206Z,102348.44
2023-06-23T11:16:32.385Z,102348.06
2023-06-23T11:19:01.776Z,102350.34
2023-06-23T11:21:35.116Z,102343.47
2023-06-23T11:24:14.732Z,102345.44
2023-06-23T11:26:50.302Z,102340.28
2023-06-23T11:29:20.607Z,102332.13
2023-06-23T11:32:17.620Z,102339.22
2023-06-23T11:34:55.569Z,102324.34
2023-06-23T11:37:25.755Z,102333.09
2023-06-23T11:39:54.073Z,102341.19
2023-06-23T11:42:21.108Z,102335.28
2023-06-23T11:44:48.361Z,102335.97
2023-06-23T11:47:14.927Z,102332.31
2023-06-23T11:49:42.665Z,102334.91
2023-06-23T11:52:10.002Z,102329.38
2023-06-23T11:54:37.692Z,102339.22
2023-06-23T11:57:04.761Z,102330.50
2023-06-23T11:59:40.445Z,102341.78
2023-06-23T12:02:07.507Z,102341.78
2023-06-23T12:04:36.166Z,102338.44
2023-06-23T12:07:03.421Z,102335.28
2023-06-23T12:09:31.192Z,102322.84
2023-06-23T12:11:59.092Z,102331.72
2023-06-23T12:14:31.688Z,102336.56
2023-06-23T12:17:09.379Z,102331.56
2023-06-23T12:19:37.319Z,102325.72
2023-06-23T12:22:04.742Z,102329.34
2023-06-23T12:24:32.240Z,102332.38
2023-06-23T12:27:01.859Z,102333.00
2023-06-23T12:29:31.633Z,102325.13
2023-06-23T12:32:00.369Z,102325.28
2023-06-23T12:34:37.565Z,102322.97
2023-06-23T12:37:12.785Z,102321.84
2023-06-23T12:39:40.367Z,102328.75
2023-06-23T12:42:09.731Z,102315.84
2023-06-23T12:44:38.788Z,102312.63
2023-06-23T12:47:06.131Z,102315.13
2023-06-23T12:49:33.562Z,102319.38
2023-06-23T12:52:01.300Z,102322.63
2023-06-23T12:54:28.586Z,102319.53
2023-06-23T12:57:03.758Z,102321.56
2023-06-23T12:59:30.629Z,102314.00
2023-06-23T13:01:57.334Z,102323.97
2023-06-23T13:04:24.393Z,102311.75
2023-06-23T13:06:52.311Z,102309.75
2023-06-23T13:09:19.332Z,102317.34
2023-06-23T13:11:46.239Z,102317.97
2023-06-23T13:14:12.981Z,102311.34
2023-06-23T13:16:39.563Z,102306.81
2023-06-23T13:19:06.127Z,102310.25
2023-06-23T13:21:32.752Z,102314.38
2023-06-23T13:24:00.445Z,102304.69
2023-06-23T13:26:27.258Z,102310.09
2023-06-23T13:28:53.875Z,102314.38
2023-06-23T13:31:20.533Z,102300.97
2023-06-23T13:33:47.368Z,102299.94
2023-06-23T13:36:13.953Z,102302.03
2023-06-23T13:38:41.775Z,102304.63
2023-06-23T13:41:08.301Z,102297.22
2023-06-23T13:43:34.859Z,102303.06
2023-06-23T13:46:01.730Z,102302.47
2023-06-23T13:48:28.547Z,102297.53
2023-06-23T13:50:55.120Z,102295.16
2023-06-23T13:53:21.794Z,102287.00
2023-06-23T13:55:48.303Z,102279.78
2023-06-23T13:58:14.889Z,102281.34
2023-06-23T14:00:41.464Z,102278.75
2023-06-23T14:03:08.114Z,102285.53
2023-06-23T14:05:51.663Z,102281.69
2023-06-23T14:08:20.008Z,102276.06
2023-06-23T14:10:46.733Z,102268.31
2023-06-23T14:13:13.257Z,102271.69
2023-06-23T14:15:39.821Z,102276.50
2023-06-23T14:18:06.657Z,102271.28
2023-06-23T14:20:33.204Z,102276.63
2023-06-23T14:22:59.799Z,102275.75
2023-06-23T14:25:26.334Z,102269.56
2023-06-23T14:27:52.949Z,102285.03
2023-06-23T14:30:19.503Z,102281.81
2023-06-23T14:32:46.170Z,102284.16
2023-06-23T14:35:12.756Z,102294.25
2023-06-23T14:37:39.400Z,102287.28
2023-06-23T14:40:06.500Z,102285.94
2023-06-23T14:42:33.169Z,102289.97
2023-06-23T14:44:59.863Z,102289.34
2023-06-23T14:47:26.468Z,102277.91
2023-06-23T14:49:53.096Z,102267.81
2023-06-23T14:52:20.299Z,102271.91
2023-06-23T14:54:46.848Z,102274.72
2023-06-23T14:57:13.406Z,102280.09
2023-06-23T14:59:39.953Z,102275.09
2023-06-23T15:02:06.730Z,102273.66
2023-06-23T15:04:33.365Z,102280.47
2023-06-23T15:07:00.368Z,102279.81
2023-06-23T15:09:26.960Z,102276.28
2023-06-23T15:11:53.957Z,102280.59
2023-06-23T15:14:20.578Z,102278.00
2023-06-23T15:16:47.145Z,102280.56
2023-06-23T15:19:13.797Z,102278.41
2023-06-23T15:21:40.441Z,102278.69
2023-06-23T15:24:07.188Z,102271.41
2023-06-23T15:26:33.894Z,102269.72
2023-06-23T15:29:00.483Z,102272.78
2023-06-23T15:31:27.060Z,102277.41
2023-06-23T15:33:53.600Z,102264.69
2023-06-23T15:36:20.177Z,102265.31
2023-06-23T15:38:46.778Z,102267.56
2023-06-23T15:41:13.325Z,102260.78
2023-06-23T15:43:39.883Z,102263.88
2023-06-23T15:46:06.917Z,102255.72
2023-06-23T15:48:34.742Z,102255.59
2023-06-23T15:51:01.469Z,102258.84
2023-06-23T15:53:28.072Z,102261.16
2023-06-23T15:55:54.597Z,102267.59
2023-06-23T15:58:21.122Z,102267.47
2023-06-23T16:00:47.704Z,102259.34
2023-06-23T16:03:14.395Z,102269.97
2023-06-23T16:05:41.906Z,102252.69
2023-06-23T16:08:08.733Z,102261.59
2023-06-23T16:10:35.324Z,102261.75
2023-06-23T16:13:01.973Z,102269.16
2023-06-23T16:15:28.577Z,102262.13
2023-06-23T16:17:55.200Z,102268.19
2023-06-23T16:20:22.392Z,102269.22
2023-06-23T16:22:49.163Z,102271.50
2023-06-23T16:25:15.901Z,102263.09
2023-06-23T16:27:42.542Z,102271.75
2023-06-23T16:30:09.299Z,102270.84
2023-06-23T16:32:35.933Z,102273.84
2023-06-23T16:35:03.303Z,102265.72
2023-06-23T16:37:29.937Z,102274.88
2023-06-23T16:39:56.532Z,102277.56
2023-06-23T16:42:23.227Z,102280.63
2023-06-23T16:44:50.360Z,102268.56
2023-06-23T16:47:17.013Z,102267.44
2023-06-23T16:49:43.726Z,102277.50
2023-06-23T16:52:10.540Z,102278.13
2023-06-23T16:54:37.126Z,102278.50
2023-06-23T16:57:03.866Z,102281.66
2023-06-23T16:59:30.469Z,102278.16
2023-06-23T17:01:57.622Z,102268.03
2023-06-23T17:04:24.234Z,102274.91
2023-06-23T17:06:50.861Z,102287.63
2023-06-23T17:09:17.816Z,102276.72
2023-06-23T17:11:44.465Z,102279.88
2023-06-23T17:14:13.350Z,102278.22
2023-06-23T17:16:39.916Z,102280.03
2023-06-23T17:19:06.537Z,102281.81
2023-06-23T17:21:33.112Z,102274.66
2023-06-23T17:23:59.832Z,102283.13
2023-06-23T17:26:26.445Z,102279.50
2023-06-23T17:28:53.111Z,102279.50
2023-06-23T17:31:19.688Z,102283.25
2023-06-23T17:33:46.594Z,102280.19
2023-06-23T17:36:16.079Z,102281.66
2023-06-23T17:38:42.651Z,102283.25
2023-06-23T17:41:09.189Z,102286.41
2023-06-23T17:43:35.785Z,102283.69
2023-06-23T17:46:02.396Z,102280.50
2023-06-23T17:48:28.991Z,102279.34
2023-06-23T17:50:55.628Z,102275.63
2023-06-23T17:53:22.645Z,102280.66
2023-06-23T17:55:49.389Z,102284.72
2023-06-23T17:58:16.008Z,102278.25
2023-06-23T18:00:42.641Z,102275.69
2023-06-23T18:03:09.363Z,102275.34
2023-06-23T18:05:36.316Z,102275.47
2023-06-23T18:08:03.109Z,102280.47
2023-06-23T18:10:29.633Z,102281.69
2023-06-23T18:12:56.198Z,102287.19
2023-06-23T18:15:22.859Z,102277.53
2023-06-23T18:17:50.300Z,102276.06
2023-06-23T18:20:17.057Z,102279.06
2023-06-23T18:22:44.257Z,102279.41
2023-06-23T18:25:10.943Z,102275.53
2023-06-23T18:27:37.537Z,102281.25
2023-06-23T18:30:04.761Z,102275.19
2023-06-23T18:32:31.550Z,102274.41
2023-06-23T18:34:58.104Z,102278.94
2023-06-23T18:37:24.674Z,102271.19
2023-06-23T18:39:51.340Z,102280.31
2023-06-23T18:42:18.419Z,102288.72
2023-06-23T18:44:45.060Z,102289.03
2023-06-23T18:47:11.662Z,102283.31
2023-06-23T18:49:38.308Z,102281.22
2023-06-23T18:52:05.181Z,102278.38
2023-06-23T18:54:31.688Z,102286.19
2023-06-23T18:56:59.547Z,102285.06
2023-06-23T18:59:26.793Z,102289.88
2023-06-23T19:01:54.264Z,102289.41
2023-06-23T19:04:20.824Z,102296.97
2023-06-23T19:06:47.936Z,102290.31
2023-06-23T19:09:14.464Z,102287.09
2023-06-23T19:11:42.944Z,102298.03
2023-06-23T19:14:09.497Z,102300.97
2023-06-23T19:16:36.076Z,102303.78
2023-06-23T19:19:02.613Z,102302.19
2023-06-23T19:21:29.324Z,102303.34
2023-06-23T19:23:56.399Z,102308.09
2023-06-23T19:26:22.994Z,102304.00
2023-06-23T19:28:49.785Z,102300.81
2023-06-23T19:31:26.614Z,102302.81
2023-06-23T19:33:53.965Z,102311.94
2023-06-23T19:36:20.573Z,102304.13
2023-06-23T19:38:47.201Z,102312.38
2023-06-23T19:41:13.742Z,102310.03
2023-06-23T19:43:40.301Z,102322.63
2023-06-23T19:46:06.863Z,102311.66
2023-06-23T19:48:33.428Z,102319.63
2023-06-23T19:50:59.990Z,102319.00
2023-06-23T19:53:26.590Z,102312.97
2023-06-23T19:55:53.134Z,102315.75
2023-06-23T19:58:20.642Z,102315.91
2023-06-23T20:00:47.908Z,102311.56
2023-06-23T20:03:14.661Z,102312.69
2023-06-23T20:05:41.300Z,102317.28
2023-06-23T20:08:08.051Z,102312.19
2023-06-23T20:10:36.573Z,102312.44
2023-06-23T20:13:03.516Z,102317.09
2023-06-23T20:15:30.376Z,102318.25
2023-06-23T20:17:57.002Z,102321.84
2023-06-23T20:20:23.611Z,102321.16
2023-06-23T20:22:50.227Z,102324.94
2023-06-23T20:25:16.960Z,102327.78
2023-06-23T20:27:43.568Z,102329.66
2023-06-23T20:30:11.962Z,102322.81
2023-06-23T20:32:38.600Z,102314.41
2023-06-23T20:35:06.135Z,102328.59
2023-06-23T20:37:32.737Z,102330.56
2023-06-23T20:39:59.944Z,102334.28
2023-06-23T20:42:26.491Z,102337.13
2023-06-23T20:44:53.035Z,102338.22
2023-06-23T20:47:19.683Z,102329.75
2023-06-23T20:49:46.265Z,102326.41
2023-06-23T20:52:13.893Z,102327.44
2023-06-23T20:54:41.683Z,102328.59
2023-06-23T20:57:08.280Z,102338.47
2023-06-23T20:59:34.820Z,102328.94
2023-06-23T21:02:01.471Z,102337.06
2023-06-23T21:04:28.112Z,102336.44
2023-06-23T21:06:54.831Z,102321.63
2023-06-23T21:09:21.468Z,102329.59
2023-06-23T21:11:48.043Z,102335.13
2023-06-23T21:14:14.598Z,102324.59
2023-06-23T21:16:45.139Z,102328.28
2023-06-23T21:19:11.731Z,102321.38
2023-06-23T21:21:38.300Z,102318.06
2023-06-23T21:24:05.317Z,102321.66
2023-06-23T21:26:31.842Z,102324.50
2023-06-23T21:28:58.407Z,102320.25
2023-06-23T21:31:24.984Z,102321.31
2023-06-23T21:33:51.579Z,102316.97
2023-06-23T21:36:18.186Z,102318.91
2023-06-23T21:38:44.736Z,102320.69
2023-06-23T21:41:11.274Z,102324.25
2023-06-23T21:43:37.891Z,102320.84
2023-06-23T21:46:04.637Z,102312.16
2023-06-23T21:48:31.433Z,102320.03
2023-06-23T21:50:57.968Z,102321.00
2023-06-23T21:53:24.556Z,102320.13
2023-06-23T21:55:51.172Z,102313.34
2023-06-23T21:58:17.817Z,102320.34
2023-06-23T22:00:44.354Z,102318.66
2023-06-23T22:03:11.042Z,102319.63
2023-06-23T22:05:37.642Z,102319.69
2023-06-23T22:08:04.432Z,102318.81
2023-06-23T22:10:31.002Z,102318.84
2023-06-23T22:12:57.600Z,102318.84
2023-06-23T22:15:24.603Z,102318.06
2023-06-23T22:17:51.379Z,102323.50
2023-06-23T22:20:18.001Z,102326.16
2023-06-23T22:22:44.825Z,102326.31
2023-06-23T22:25:12.840Z,102323.72
2023-06-23T22:27:41.382Z,102331.75
2023-06-23T22:30:08.577Z,102334.50
2023-06-23T22:32:35.346Z,102327.59
2023-06-23T22:35:01.968Z,102323.34
2023-06-23T22:37:28.549Z,102336.63
2023-06-23T22:39:55.098Z,102333.25
2023-06-23T22:42:21.882Z,102338.63
2023-06-23T22:44:48.405Z,102337.06
2023-06-23T22:47:18.208Z,102350.41
2023-06-23T22:49:44.796Z,102353.25
2023-06-23T22:52:11.316Z,102355.25
2023-06-23T22:54:37.924Z,102359.75
2023-06-23T22:57:04.723Z,102352.88
2023-06-23T22:59:31.308Z,102361.81
2023-06-23T23:01:57.823Z,102353.09
2023-06-23T23:04:24.516Z,102347.88
2023-06-23T23:06:51.333Z,102348.06
2023-06-23T23:09:18.137Z,102343.81
2023-06-23T23:11:44.693Z,102346.53
2023-06-23T23:14:11.290Z,102356.28
2023-06-23T23:16:37.812Z,102353.72
2023-06-23T23:19:04.423Z,102354.78
2023-06-23T23:21:30.970Z,102352.28
2023-06-23T23:23:57.892Z,102360.34
2023-06-23T23:26:24.428Z,102357.03
2023-06-23T23:28:51.044Z,102364.19
2023-06-23T23:31:17.618Z,102364.31
2023-06-23T23:33:45.084Z,102353.91
2023-06-23T23:36:12.470Z,102343.53
2023-06-23T23:38:39.337Z,102351.47
2023-06-23T23:41:05.920Z,102347.16
2023-06-23T23:43:32.492Z,102341.06
2023-06-23T23:45:59.029Z,102343.72
2023-06-23T23:48:25.603Z,102342.88
2023-06-23T23:50:52.116Z,102334.38
2023-06-23T23:53:18.773Z,102346.50
2023-06-23T23:55:45.362Z,102348.34
2023-06-23T23:58:12.257Z,102352.84
